createdAt,value
2023-02-14T00:01:12.839Z,99.90
2023-02-14T00:03:40.367Z,99.90
2023-02-14T00:06:14.109Z,99.90
2023-02-14T00:08:44.260Z,99.90
2023-02-14T00:11:13.223Z,99.90
2023-02-14T00:14:00.109Z,99.90
2023-02-14T00:16:26.901Z,99.90
2023-02-14T00:19:05.498Z,99.90
2023-02-14T00:21:35.995Z,99.90
2023-02-14T00:24:09.906Z,99.90
2023-02-14T00:26:38.589Z,99.90
2023-02-14T00:29:07.578Z,99.90
2023-02-14T00:31:35.572Z,99.90
2023-02-14T00:34:02.799Z,99.90
2023-02-14T00:36:29.640Z,99.90
2023-02-14T00:38:56.504Z,99.90
2023-02-14T00:41:23.329Z,99.90
2023-02-14T00:43:53.446Z,99.90
2023-02-14T00:46:22.652Z,99.90
2023-02-14T00:48:49.797Z,99.90
2023-02-14T00:51:18.319Z,99.90
2023-02-14T00:53:47.924Z,99.90
2023-02-14T00:56:15.684Z,99.90
2023-02-14T00:58:43.080Z,99.90
2023-02-14T01:01:11.018Z,99.90
2023-02-14T01:03:38.054Z,99.90
2023-02-14T01:06:06.084Z,99.90
2023-02-14T01:08:33.191Z,99.90
2023-02-14T01:11:19.462Z,99.90
2023-02-14T01:13:48.339Z,99.90
2023-02-14T01:16:22.740Z,99.90
2023-02-14T01:18:49.995Z,99.90
2023-02-14T01:21:26.732Z,99.90
2023-02-14T01:23:57.326Z,99.90
2023-02-14T01:26:26.108Z,99.90
2023-02-14T01:28:53.499Z,99.90
2023-02-14T01:31:30.087Z,99.90
2023-02-14T01:33:58.657Z,99.90
2023-02-14T01:36:36.347Z,99.90
2023-02-14T01:39:08.633Z,99.90
2023-02-14T01:41:37.939Z,99.90
2023-02-14T01:44:33.386Z,99.90
2023-02-14T01:47:07.534Z,99.90
2023-02-14T01:49:43.039Z,99.90
2023-02-14T01:52:37.486Z,99.90
2023-02-14T01:55:16.773Z,99.90
2023-02-14T01:57:52.984Z,99.90
2023-02-14T02:00:40.267Z,99.90
2023-02-14T02:03:09.344Z,99.90
2023-02-14T02:05:42.679Z,99.90
2023-02-14T02:08:09.661Z,99.90
2023-02-14T02:10:36.510Z,99.90
2023-02-14T02:13:08.162Z,99.90
2023-02-14T02:16:06.856Z,99.90
2023-02-14T02:19:03.815Z,99.90
2023-02-14T02:21:56.688Z,99.90
2023-02-14T02:24:39.361Z,99.90
2023-02-14T02:27:17.996Z,99.90
2023-02-14T02:30:42.589Z,99.90
2023-02-14T02:33:58.639Z,99.90
2023-02-14T02:37:02.579Z,99.90
2023-02-14T02:39:53.148Z,99.90
2023-02-14T02:43:00.304Z,99.90
2023-02-14T02:46:17.376Z,99.90
2023-02-14T02:49:03.500Z,99.90
2023-02-14T02:52:13.275Z,99.90
2023-02-14T02:54:51.773Z,99.90
2023-02-14T02:57:34.720Z,99.90
2023-02-14T03:00:05.959Z,99.90
2023-02-14T03:03:07.439Z,99.90
2023-02-14T03:05:35.777Z,99.90
2023-02-14T03:08:05.139Z,99.90
2023-02-14T03:10:38.013Z,99.90
2023-02-14T03:13:20.944Z,99.90
2023-02-14T03:16:08.754Z,99.90
2023-02-14T03:19:15.125Z,99.90
2023-02-14T03:22:19.689Z,99.90
2023-02-14T03:25:04.051Z,99.90
2023-02-14T03:27:47.138Z,99.90
2023-02-14T03:30:22.958Z,99.90
2023-02-14T03:33:16.368Z,99.90
2023-02-14T03:36:05.890Z,99.90
2023-02-14T03:38:47.321Z,99.90
2023-02-14T03:41:26.058Z,99.90
2023-02-14T03:44:01.823Z,99.90
2023-02-14T03:46:35.748Z,99.90
2023-02-14T03:49:10.592Z,99.90
2023-02-14T03:51:38.892Z,99.90
2023-02-14T03:54:10.727Z,99.90
2023-02-14T03:56:56.143Z,99.90
2023-02-14T03:59:26.820Z,99.90
2023-02-14T04:02:17.610Z,99.90
2023-02-14T04:04:48.391Z,99.90
2023-02-14T04:07:18.909Z,99.90
2023-02-14T04:09:46.835Z,99.90
2023-02-14T04:12:16.930Z,99.90
2023-02-14T04:14:45.217Z,99.90
2023-02-14T04:17:31.077Z,99.90
2023-02-14T04:19:57.780Z,99.90
2023-02-14T04:22:24.501Z,99.90
2023-02-14T04:24:51.358Z,99.90
2023-02-14T04:27:18.097Z,99.90
2023-02-14T04:29:49.243Z,99.90
2023-02-14T04:32:20.514Z,99.90
2023-02-14T04:34:47.792Z,99.90
2023-02-14T04:37:18.843Z,99.90
2023-02-14T04:39:46.167Z,99.90
2023-02-14T04:42:13.285Z,99.90
2023-02-14T04:44:40.241Z,99.90
2023-02-14T04:47:08.886Z,99.90
2023-02-14T04:49:36.214Z,99.90
2023-02-14T04:52:04.635Z,99.90
2023-02-14T04:54:33.261Z,99.90
2023-02-14T04:57:00.394Z,99.90
2023-02-14T04:59:27.382Z,99.90
2023-02-14T05:01:54.698Z,99.90
2023-02-14T05:04:21.654Z,99.90
2023-02-14T05:06:48.542Z,99.90
2023-02-14T05:09:15.467Z,99.90
2023-02-14T05:11:42.766Z,99.90
2023-02-14T05:14:09.838Z,99.90
2023-02-14T05:16:38.434Z,99.90
2023-02-14T05:19:05.540Z,99.90
2023-02-14T05:21:33.216Z,99.90
2023-02-14T05:24:01.785Z,99.90
2023-02-14T05:26:28.843Z,99.90
2023-02-14T05:28:56.614Z,99.90
2023-02-14T05:31:33.732Z,99.90
2023-02-14T05:34:09.118Z,99.90
2023-02-14T05:36:36.177Z,99.90
2023-02-14T05:39:03.546Z,99.90
2023-02-14T05:41:30.642Z,99.90
2023-02-14T05:43:57.400Z,99.90
2023-02-14T05:46:24.132Z,99.90
2023-02-14T05:48:51.522Z,99.90
2023-02-14T05:51:18.271Z,99.90
2023-02-14T05:53:45.089Z,99.90
2023-02-14T05:56:11.970Z,99.90
2023-02-14T05:58:38.803Z,99.90
2023-02-14T06:01:05.674Z,99.90
2023-02-14T06:03:32.593Z,99.90
2023-02-14T06:05:59.504Z,99.90
2023-02-14T06:08:26.361Z,99.90
2023-02-14T06:10:53.188Z,99.90
2023-02-14T06:13:19.929Z,99.90
2023-02-14T06:15:46.726Z,99.90
2023-02-14T06:18:13.480Z,99.90
2023-02-14T06:20:40.248Z,99.90
2023-02-14T06:23:07.089Z,99.90
2023-02-14T06:25:34.056Z,99.90
2023-02-14T06:28:01.128Z,99.90
2023-02-14T06:30:28.466Z,99.90
2023-02-14T06:32:55.596Z,99.90
2023-02-14T06:35:22.977Z,99.90
2023-02-14T06:37:49.827Z,99.90
2023-02-14T06:40:16.705Z,99.90
2023-02-14T06:42:44.316Z,99.90
2023-02-14T06:45:11.487Z,99.90
2023-02-14T06:47:38.443Z,99.90
2023-02-14T06:50:06.224Z,99.90
2023-02-14T06:52:33.768Z,99.90
2023-02-14T06:55:00.586Z,99.90
2023-02-14T06:57:27.830Z,99.90
2023-02-14T06:59:55.046Z,99.90
2023-02-14T07:02:24.758Z,99.90
2023-02-14T07:04:51.861Z,99.90
2023-02-14T07:07:18.625Z,99.90
2023-02-14T07:09:45.358Z,99.90
2023-02-14T07:12:12.145Z,99.90
2023-02-14T07:14:38.930Z,99.90
2023-02-14T07:17:05.872Z,99.90
2023-02-14T07:19:32.657Z,99.90
2023-02-14T07:21:59.357Z,99.90
2023-02-14T07:24:26.116Z,99.90
2023-02-14T07:26:52.812Z,99.90
2023-02-14T07:29:19.602Z,99.90
2023-02-14T07:31:46.501Z,99.90
2023-02-14T07:34:13.397Z,99.90
2023-02-14T07:36:40.204Z,99.90
2023-02-14T07:39:07.368Z,99.90
2023-02-14T07:41:34.121Z,99.90
2023-02-14T07:44:00.947Z,99.90
2023-02-14T07:46:27.724Z,99.90
2023-02-14T07:48:54.518Z,99.90
2023-02-14T07:51:21.214Z,99.90
2023-02-14T07:53:48.370Z,99.90
2023-02-14T07:56:15.178Z,99.90
2023-02-14T07:58:42.020Z,99.90
2023-02-14T08:01:08.834Z,99.90
2023-02-14T08:03:35.680Z,99.90
2023-02-14T08:06:02.608Z,99.90
2023-02-14T08:08:55.271Z,99.90
2023-02-14T08:11:40.401Z,99.90
2023-02-14T08:14:07.679Z,99.90
2023-02-14T08:16:34.711Z,99.90
2023-02-14T08:19:02.321Z,99.90
2023-02-14T08:21:29.620Z,99.90
2023-02-14T08:23:57.017Z,99.90
2023-02-14T08:26:23.977Z,99.90
2023-02-14T08:28:50.900Z,99.90
2023-02-14T08:31:35.707Z,99.90
2023-02-14T08:34:06.535Z,99.90
2023-02-14T08:36:34.885Z,99.90
2023-02-14T08:39:04.369Z,99.90
2023-02-14T08:41:31.994Z,99.90
2023-02-14T08:43:58.979Z,99.90
2023-02-14T08:46:26.343Z,99.90
2023-02-14T08:48:54.277Z,99.90
2023-02-14T08:51:22.737Z,99.90
2023-02-14T08:53:53.143Z,99.90
2023-02-14T08:56:22.563Z,99.90
2023-02-14T08:58:53.444Z,99.90
2023-02-14T09:01:20.962Z,99.90
2023-02-14T09:03:48.030Z,99.90
2023-02-14T09:06:17.204Z,99.90
2023-02-14T09:08:45.630Z,99.90
2023-02-14T09:11:23.230Z,99.90
2023-02-14T09:13:53.222Z,99.90
2023-02-14T09:16:21.603Z,99.90
2023-02-14T09:18:49.396Z,99.90
2023-02-14T09:21:23.017Z,99.90
2023-02-14T09:23:49.847Z,99.70
2023-02-14T09:26:18.139Z,99.50
2023-02-14T09:28:45.250Z,98.50
2023-02-14T09:31:21.500Z,98.20
2023-02-14T09:33:50.530Z,96.90
2023-02-14T09:36:17.545Z,96.50
2023-02-14T09:38:44.283Z,96.70
2023-02-14T09:41:29.829Z,95.90
2023-02-14T09:44:10.960Z,95.50
2023-02-14T09:46:50.567Z,95.50
2023-02-14T09:49:28.300Z,94.70
2023-02-14T09:51:55.489Z,94.40
2023-02-14T09:54:28.226Z,94.20
2023-02-14T09:57:45.502Z,93.00
2023-02-14T10:00:27.570Z,92.80
2023-02-14T10:03:12.724Z,91.60
2023-02-14T10:05:56.210Z,91.90
2023-02-14T10:08:58.915Z,91.20
2023-02-14T10:11:25.919Z,91.00
2023-02-14T10:14:02.181Z,91.30
2023-02-14T10:16:37.492Z,90.50
2023-02-14T10:19:27.377Z,89.80
2023-02-14T10:22:02.651Z,88.90
2023-02-14T10:24:41.904Z,89.30
2023-02-14T10:27:33.996Z,88.00
2023-02-14T10:30:02.909Z,88.40
2023-02-14T10:32:48.932Z,87.30
2023-02-14T10:35:49.117Z,86.30
2023-02-14T10:38:54.396Z,85.00
2023-02-14T10:41:35.584Z,84.30
2023-02-14T10:44:47.950Z,83.20
2023-02-14T10:47:42.111Z,82.60
2023-02-14T10:50:59.420Z,82.50
2023-02-14T10:53:56.956Z,82.80
2023-02-14T10:56:34.962Z,82.10
2023-02-14T10:59:21.755Z,82.10
2023-02-14T11:01:52.684Z,82.40
2023-02-14T11:04:23.738Z,82.50
2023-02-14T11:06:51.294Z,83.40
2023-02-14T11:09:19.231Z,83.10
2023-02-14T11:11:53.230Z,83.40
2023-02-14T11:14:35.697Z,83.40
2023-02-14T11:17:30.121Z,83.20
2023-02-14T11:20:09.505Z,82.50
2023-02-14T11:22:36.328Z,83.80
2023-02-14T11:25:28.486Z,85.30
2023-02-14T11:28:16.911Z,83.90
2023-02-14T11:30:47.504Z,85.60
2023-02-14T11:33:40.385Z,84.50
2023-02-14T11:36:17.465Z,85.70
2023-02-14T11:38:47.228Z,85.60
2023-02-14T11:41:16.786Z,84.30
2023-02-14T11:43:45.372Z,85.50
2023-02-14T11:46:21.336Z,86.00
2023-02-14T11:49:04.909Z,87.90
2023-02-14T11:51:40.574Z,84.90
2023-02-14T11:54:24.689Z,85.70
2023-02-14T11:56:56.961Z,88.40
2023-02-14T11:59:36.989Z,87.30
2023-02-14T12:02:40.519Z,89.00
2023-02-14T12:05:27.750Z,88.00
2023-02-14T12:07:58.936Z,89.30
2023-02-14T12:10:39.206Z,89.50
2023-02-14T12:13:08.830Z,89.90
2023-02-14T12:15:43.453Z,91.10
2023-02-14T12:18:50.294Z,90.60
2023-02-14T12:21:51.684Z,91.50
2023-02-14T12:24:38.195Z,90.90
2023-02-14T12:27:21.043Z,91.00
2023-02-14T12:30:16.854Z,91.00
2023-02-14T12:32:58.354Z,92.50
2023-02-14T12:36:06.701Z,91.60
2023-02-14T12:39:02.138Z,91.90
2023-02-14T12:41:48.186Z,92.30
2023-02-14T12:44:36.919Z,92.30
2023-02-14T12:47:16.623Z,92.50
2023-02-14T12:50:00.768Z,92.80
2023-02-14T12:52:56.077Z,93.10
2023-02-14T12:56:06.599Z,92.90
2023-02-14T13:03:34.652Z,95.60
2023-02-14T13:06:17.201Z,94.40
2023-02-14T13:09:11.256Z,95.20
2023-02-14T13:12:37.462Z,95.50
2023-02-14T13:16:01.362Z,96.50
2023-02-14T13:19:20.451Z,97.00
2023-02-14T13:21:49.536Z,98.50
2023-02-14T13:24:29.487Z,99.10
2023-02-14T13:27:01.648Z,98.40
2023-02-14T13:29:43.030Z,99.00
2023-02-14T13:32:15.412Z,99.30
2023-02-14T13:34:46.950Z,99.40
2023-02-14T13:37:20.361Z,99.30
2023-02-14T13:40:07.689Z,99.50
2023-02-14T13:42:52.143Z,99.80
2023-02-14T13:45:40.302Z,99.90
2023-02-14T13:48:29.275Z,99.90
2023-02-14T13:51:04.006Z,99.90
2023-02-14T13:53:48.662Z,99.90
2023-02-14T13:56:15.386Z,99.90
2023-02-14T13:59:01.249Z,99.90
2023-02-14T14:01:39.128Z,99.90
2023-02-14T14:04:31.951Z,99.90
2023-02-14T14:07:04.354Z,99.90
2023-02-14T14:09:43.274Z,99.90
2023-02-14T14:12:28.473Z,99.90
2023-02-14T14:15:07.956Z,99.90
2023-02-14T14:18:08.415Z,99.90
2023-02-14T14:20:52.375Z,99.90
2023-02-14T14:23:34.110Z,99.90
2023-02-14T14:26:01.998Z,99.90
2023-02-14T14:28:32.911Z,99.90
2023-02-14T14:30:59.983Z,99.90
2023-02-14T14:33:33.529Z,99.90
2023-02-14T14:36:08.829Z,99.90
2023-02-14T14:38:49.409Z,99.90
2023-02-14T14:41:16.381Z,99.90
2023-02-14T14:43:43.644Z,99.90
2023-02-14T14:46:15.783Z,99.90
2023-02-14T14:48:51.981Z,99.90
2023-02-14T14:51:35.097Z,99.90
2023-02-14T14:54:18.014Z,99.90
2023-02-14T14:56:59.215Z,99.90
2023-02-14T14:59:25.822Z,99.90
2023-02-14T15:01:54.324Z,99.90
2023-02-14T15:04:35.654Z,99.90
2023-02-14T15:07:33.256Z,99.90
2023-02-14T15:10:00.677Z,99.90
2023-02-14T15:12:46.918Z,99.90
2023-02-14T15:15:17.765Z,99.90
2023-02-14T15:17:46.488Z,99.90
2023-02-14T15:20:23.029Z,99.90
2023-02-14T15:22:54.048Z,99.90
2023-02-14T15:25:27.458Z,99.90
2023-02-14T15:27:54.270Z,99.90
2023-02-14T15:30:23.526Z,99.90
2023-02-14T15:32:52.250Z,99.90
2023-02-14T15:35:28.102Z,99.90
2023-02-14T15:38:00.768Z,99.90
2023-02-14T15:40:32.656Z,99.90
2023-02-14T15:43:25.124Z,99.90
2023-02-14T15:45:59.340Z,99.90
2023-02-14T15:48:33.936Z,99.90
2023-02-14T15:51:04.765Z,99.90
2023-02-14T15:53:42.495Z,99.90
2023-02-14T15:56:20.814Z,99.90
2023-02-14T15:58:49.469Z,99.90
2023-02-14T16:01:21.763Z,99.90
2023-02-14T16:03:53.516Z,99.90
2023-02-14T16:06:44.917Z,99.90
2023-02-14T16:09:53.371Z,99.90
2023-02-14T16:12:36.010Z,99.90
2023-02-14T16:15:31.746Z,99.90
2023-02-14T16:18:00.974Z,99.90
2023-02-14T16:20:39.947Z,99.90
2023-02-14T16:23:25.174Z,99.90
2023-02-14T16:25:53.142Z,99.90
2023-02-14T16:28:21.249Z,99.90
2023-02-14T16:30:55.510Z,99.90
2023-02-14T16:33:32.172Z,99.90
2023-02-14T16:36:26.025Z,99.90
2023-02-14T16:38:53.636Z,99.90
2023-02-14T16:41:26.046Z,99.90
2023-02-14T16:43:54.143Z,99.90
2023-02-14T16:46:25.489Z,99.90
2023-02-14T16:48:53.017Z,99.90
2023-02-14T16:51:23.088Z,99.90
2023-02-14T16:53:50.680Z,99.90
2023-02-14T16:56:32.270Z,99.90
2023-02-14T16:58:59.347Z,99.90
2023-02-14T17:01:26.317Z,99.90
2023-02-14T17:03:53.184Z,99.90
2023-02-14T17:06:24.574Z,99.90
2023-02-14T17:08:54.088Z,99.90
2023-02-14T17:11:23.417Z,99.90
2023-02-14T17:13:52.924Z,99.90
2023-02-14T17:16:20.289Z,99.90
2023-02-14T17:18:51.532Z,99.90
2023-02-14T17:21:23.020Z,99.90
2023-02-14T17:23:50.673Z,99.90
2023-02-14T17:26:20.067Z,99.90
2023-02-14T17:28:47.254Z,99.90
2023-02-14T17:31:14.160Z,99.90
2023-02-14T17:33:40.983Z,99.90
2023-02-14T17:36:13.587Z,99.90
2023-02-14T17:38:43.738Z,99.90
2023-02-14T17:41:18.496Z,99.90
2023-02-14T17:43:46.824Z,99.90
2023-02-14T17:46:14.776Z,99.90
2023-02-14T17:48:45.364Z,99.90
2023-02-14T17:51:13.382Z,99.90
2023-02-14T17:53:43.193Z,99.90
2023-02-14T17:56:20.292Z,99.90
2023-02-14T17:58:50.527Z,99.90
2023-02-14T18:01:22.465Z,99.90
2023-02-14T18:03:51.752Z,99.90
2023-02-14T18:06:19.364Z,99.90
2023-02-14T18:08:49.856Z,99.90
2023-02-14T18:11:19.220Z,99.90
2023-02-14T18:13:47.535Z,99.90
2023-02-14T18:16:18.207Z,99.90
2023-02-14T18:18:45.964Z,99.90
2023-02-14T18:21:16.102Z,99.90
2023-02-14T18:23:43.074Z,99.90
2023-02-14T18:26:15.513Z,99.90
2023-02-14T18:28:42.562Z,99.90
2023-02-14T18:31:16.804Z,99.90
2023-02-14T18:33:45.225Z,99.90
2023-02-14T18:36:16.468Z,99.90
2023-02-14T18:38:45.596Z,99.90
2023-02-14T18:41:16.475Z,99.90
2023-02-14T18:43:44.636Z,99.90
2023-02-14T18:46:15.872Z,99.90
2023-02-14T18:48:42.700Z,99.90
2023-02-14T18:51:21.681Z,99.90
2023-02-14T18:53:52.158Z,99.90
2023-02-14T18:56:22.926Z,99.90
2023-02-14T18:58:54.084Z,99.90
2023-02-14T19:01:25.499Z,99.90
2023-02-14T19:03:53.878Z,99.90
2023-02-14T19:06:21.774Z,99.90
2023-02-14T19:08:49.512Z,99.90
2023-02-14T19:11:21.221Z,99.90
2023-02-14T19:13:53.613Z,99.90
2023-02-14T19:16:34.498Z,99.90
2023-02-14T19:19:02.656Z,99.90
2023-02-14T19:21:34.050Z,99.90
2023-02-14T19:24:02.510Z,99.90
2023-02-14T19:26:32.891Z,99.90
2023-02-14T19:29:06.911Z,99.90
2023-02-14T19:31:40.316Z,99.90
2023-02-14T19:34:13.716Z,99.90
2023-02-14T19:36:40.505Z,99.90
2023-02-14T19:39:07.795Z,99.90
2023-02-14T19:41:35.780Z,99.90
2023-02-14T19:44:05.648Z,99.90
2023-02-14T19:46:34.092Z,99.90
2023-02-14T19:49:01.792Z,99.90
2023-02-14T19:51:32.999Z,99.90
2023-02-14T19:54:02.940Z,99.90
2023-02-14T19:56:34.303Z,99.90
2023-02-14T19:59:07.504Z,99.90
2023-02-14T20:01:39.384Z,99.90
2023-02-14T20:04:10.047Z,99.90
2023-02-14T20:06:38.326Z,99.90
2023-02-14T20:09:07.167Z,99.90
2023-02-14T20:11:46.627Z,99.90
2023-02-14T20:14:14.562Z,99.90
2023-02-14T20:16:41.684Z,99.90
2023-02-14T20:19:12.719Z,99.90
2023-02-14T20:21:45.874Z,99.90
2023-02-14T20:24:20.235Z,99.90
2023-02-14T20:26:48.606Z,99.90
2023-02-14T20:29:16.694Z,99.90
2023-02-14T20:31:50.915Z,99.90
2023-02-14T20:34:19.313Z,99.90
2023-02-14T20:36:55.501Z,99.90
2023-02-14T20:39:29.073Z,99.90
2023-02-14T20:41:56.040Z,99.90
2023-02-14T20:44:23.583Z,99.90
2023-02-14T20:46:53.670Z,99.90
2023-02-14T20:49:24.960Z,99.90
2023-02-14T20:51:52.564Z,99.90
2023-02-14T20:54:23.809Z,99.90
2023-02-14T20:56:51.160Z,99.90
2023-02-14T20:59:19.376Z,99.90
2023-02-14T21:01:46.342Z,99.90
2023-02-14T21:04:14.055Z,99.90
2023-02-14T21:06:40.939Z,99.90
2023-02-14T21:09:08.550Z,99.90
2023-02-14T21:11:35.360Z,99.90
2023-02-14T21:14:02.553Z,99.90
2023-02-14T21:16:30.280Z,99.90
2023-02-14T21:18:59.410Z,99.90
2023-02-14T21:21:35.989Z,99.90
2023-02-14T21:24:07.781Z,99.90
2023-02-14T21:26:35.106Z,99.90
2023-02-14T21:29:02.811Z,99.90
2023-02-14T21:31:31.795Z,99.90
2023-02-14T21:34:01.790Z,99.90
2023-02-14T21:36:32.211Z,99.90
2023-02-14T21:39:00.252Z,99.90
2023-02-14T21:41:31.051Z,99.90
2023-02-14T21:44:00.559Z,99.90
2023-02-14T21:46:31.481Z,99.90
2023-02-14T21:49:19.587Z,99.90
2023-02-14T21:51:48.140Z,99.90
2023-02-14T21:54:16.568Z,99.90
2023-02-14T21:56:44.537Z,99.90
2023-02-14T21:59:12.341Z,99.90
2023-02-14T22:01:42.153Z,99.90
2023-02-14T22:04:12.124Z,99.90
2023-02-14T22:06:41.809Z,99.90
2023-02-14T22:09:12.218Z,99.90
2023-02-14T22:11:38.964Z,99.90
2023-02-14T22:14:05.805Z,99.90
2023-02-14T22:16:32.989Z,99.90
2023-02-14T22:18:59.717Z,99.90
2023-02-14T22:21:27.475Z,99.90
2023-02-14T22:23:55.413Z,99.90
2023-02-14T22:26:26.516Z,99.90
2023-02-14T22:28:59.188Z,99.90
2023-02-14T22:31:30.069Z,99.90
2023-02-14T22:33:56.977Z,99.90
2023-02-14T22:36:23.783Z,99.90
2023-02-14T22:38:50.529Z,99.90
2023-02-14T22:41:23.990Z,99.90
2023-02-14T22:43:53.408Z,99.90
2023-02-14T22:46:26.949Z,99.90
2023-02-14T22:48:55.535Z,99.90
2023-02-14T22:51:30.150Z,99.90
2023-02-14T22:54:01.749Z,99.90
2023-02-14T22:56:34.147Z,99.90
2023-02-14T22:59:05.507Z,99.90
2023-02-14T23:01:35.835Z,99.90
2023-02-14T23:04:04.095Z,99.90
2023-02-14T23:06:33.948Z,99.90
2023-02-14T23:09:02.923Z,99.90
2023-02-14T23:11:32.981Z,99.90
2023-02-14T23:14:18.968Z,99.90
2023-02-14T23:17:05.064Z,99.90
2023-02-14T23:19:53.163Z,99.90
2023-02-14T23:22:27.600Z,99.90
2023-02-14T23:24:57.866Z,99.90
2023-02-14T23:27:43.699Z,99.90
2023-02-14T23:30:15.473Z,99.90
2023-02-14T23:32:42.439Z,99.90
2023-02-14T23:35:09.861Z,99.90
2023-02-14T23:37:36.735Z,99.90
2023-02-14T23:40:04.100Z,99.90
2023-02-14T23:42:30.890Z,99.90
2023-02-14T23:45:17.777Z,99.90
2023-02-14T23:47:44.568Z,99.90
2023-02-14T23:50:11.505Z,99.90
2023-02-14T23:52:41.564Z,99.90
2023-02-14T23:55:09.227Z,99.90
2023-02-14T23:57:37.210Z,99.90
